createdAt,value
2022-09-27T00:01:44.701Z,95679.44
2022-09-27T00:04:12.067Z,95671.44
2022-09-27T00:06:40.867Z,95666.31
2022-09-27T00:09:08.535Z,95666.22
2022-09-27T00:11:34.854Z,95676.31
2022-09-27T00:14:01.104Z,95668.81
2022-09-27T00:16:27.418Z,95671.00
2022-09-27T00:18:53.870Z,95675.31
2022-09-27T00:21:21.212Z,95670.59
2022-09-27T00:23:47.557Z,95677.28
2022-09-27T00:26:13.838Z,95666.41
2022-09-27T00:28:39.998Z,95672.84
2022-09-27T00:31:06.745Z,95667.81
2022-09-27T00:33:33.143Z,95655.84
2022-09-27T00:35:59.469Z,95650.03
2022-09-27T00:38:25.657Z,95654.56
2022-09-27T00:40:51.894Z,95646.84
2022-09-27T00:43:18.497Z,95650.63
2022-09-27T00:45:44.750Z,95652.75
2022-09-27T00:48:10.951Z,95652.25
2022-09-27T00:50:37.265Z,95654.09
2022-09-27T00:53:03.439Z,95652.53
2022-09-27T00:55:29.725Z,95651.75
2022-09-27T00:57:55.916Z,95647.00
2022-09-27T01:00:22.173Z,95636.66
2022-09-27T01:02:48.440Z,95639.63
2022-09-27T01:05:14.761Z,95635.34
2022-09-27T01:07:40.975Z,95633.00
2022-09-27T01:10:07.528Z,95637.50
2022-09-27T01:12:33.792Z,95637.81
2022-09-27T01:15:00.183Z,95635.72
2022-09-27T01:17:27.089Z,95640.25
2022-09-27T01:19:53.737Z,95637.88
2022-09-27T01:22:19.977Z,95621.16
2022-09-27T01:24:46.194Z,95633.97
2022-09-27T01:27:13.164Z,95631.59
2022-09-27T01:29:39.364Z,95632.66
2022-09-27T01:32:05.559Z,95639.06
2022-09-27T01:34:31.792Z,95633.25
2022-09-27T01:36:58.000Z,95621.97
2022-09-27T01:39:24.291Z,95638.06
2022-09-27T01:41:50.494Z,95634.88
2022-09-27T01:44:17.182Z,95634.09
2022-09-27T01:46:43.501Z,95627.22
2022-09-27T01:49:10.154Z,95625.63
2022-09-27T01:51:36.440Z,95615.00
2022-09-27T01:54:02.685Z,95616.06
2022-09-27T01:56:28.893Z,95612.59
2022-09-27T01:58:56.247Z,95611.03
2022-09-27T02:01:22.717Z,95613.69
2022-09-27T02:03:49.546Z,95616.66
2022-09-27T02:06:15.812Z,95618.50
2022-09-27T02:08:42.010Z,95608.16
2022-09-27T02:11:08.251Z,95612.69
2022-09-27T02:13:34.603Z,95607.66
2022-09-27T02:16:00.957Z,95608.75
2022-09-27T02:18:27.272Z,95604.50
2022-09-27T02:20:53.559Z,95602.13
2022-09-27T02:23:20.904Z,95590.69
2022-09-27T02:25:47.124Z,95594.44
2022-09-27T02:28:13.324Z,95595.53
2022-09-27T02:30:39.570Z,95590.97
2022-09-27T02:33:05.829Z,95597.41
2022-09-27T02:35:32.026Z,95597.97
2022-09-27T02:37:58.229Z,95592.66
2022-09-27T02:40:24.957Z,95599.34
2022-09-27T02:42:51.282Z,95596.97
2022-09-27T02:45:17.488Z,95591.16
2022-09-27T02:47:44.174Z,95593.00
2022-09-27T02:50:10.425Z,95593.00
2022-09-27T02:52:36.733Z,95595.66
2022-09-27T02:55:03.283Z,95592.25
2022-09-27T02:57:29.537Z,95596.75
2022-09-27T02:59:56.030Z,95602.06
2022-09-27T03:02:22.964Z,95601.28
2022-09-27T03:04:49.500Z,95600.50
2022-09-27T03:07:15.743Z,95594.38
2022-09-27T03:09:42.299Z,95598.91
2022-09-27T03:12:08.543Z,95592.03
2022-09-27T03:14:34.832Z,95585.91
2022-09-27T03:17:01.186Z,95587.75
2022-09-27T03:19:27.425Z,95601.84
2022-09-27T03:21:53.808Z,95597.63
2022-09-27T03:24:20.239Z,95590.72
2022-09-27T03:26:46.489Z,95601.34
2022-09-27T03:29:12.676Z,95597.91
2022-09-27T03:31:38.946Z,95597.91
2022-09-27T03:34:05.245Z,95596.31
2022-09-27T03:36:31.531Z,95586.78
2022-09-27T03:38:58.020Z,95596.91
2022-09-27T03:41:24.703Z,95596.13
2022-09-27T03:43:50.934Z,95594.53
2022-09-27T03:46:17.351Z,95584.97
2022-09-27T03:48:43.708Z,95587.63
2022-09-27T03:51:10.145Z,95588.44
2022-09-27T03:53:36.350Z,95587.13
2022-09-27T03:56:02.731Z,95587.94
2022-09-27T03:58:28.974Z,95581.03
2022-09-27T04:00:55.252Z,95585.56
2022-09-27T04:03:21.912Z,95590.38
2022-09-27T04:05:48.171Z,95585.84
2022-09-27T04:08:14.513Z,95589.56
2022-09-27T04:10:40.698Z,95586.16
2022-09-27T04:13:07.067Z,95590.66
2022-09-27T04:15:33.365Z,95602.09
2022-09-27T04:17:59.570Z,95603.16
2022-09-27T04:20:26.056Z,95597.03
2022-09-27T04:22:52.277Z,95596.28
2022-09-27T04:25:18.573Z,95599.69
2022-09-27T04:27:44.797Z,95605.81
2022-09-27T04:30:11.044Z,95602.34
2022-09-27T04:32:37.491Z,95606.09
2022-09-27T04:35:03.851Z,95612.22
2022-09-27T04:37:30.041Z,95613.28
2022-09-27T04:39:56.321Z,95614.88
2022-09-27T04:42:22.647Z,95616.75
2022-09-27T04:44:49.029Z,95619.41
2022-09-27T04:47:15.439Z,95629.22
2022-09-27T04:49:41.697Z,95632.69
2022-09-27T04:52:07.896Z,95637.19
2022-09-27T04:54:34.271Z,95636.44
2022-09-27T04:57:00.543Z,95642.53
2022-09-27T04:59:26.752Z,95640.16
2022-09-27T05:01:53.139Z,95626.78
2022-09-27T05:04:19.415Z,95641.53
2022-09-27T05:06:45.630Z,95650.28
2022-09-27T05:09:12.084Z,95643.41
2022-09-27T05:11:38.315Z,95646.06
2022-09-27T05:14:04.544Z,95653.22
2022-09-27T05:16:33.387Z,95659.34
2022-09-27T05:19:00.610Z,95658.84
2022-09-27T05:21:26.795Z,95668.66
2022-09-27T05:23:53.105Z,95673.97
2022-09-27T05:26:19.431Z,95667.09
2022-09-27T05:28:46.042Z,95673.22
2022-09-27T05:31:12.372Z,95675.88
2022-09-27T05:33:38.640Z,95673.22
2022-09-27T05:36:04.837Z,95676.94
2022-09-27T05:38:31.067Z,95682.25
2022-09-27T05:40:57.356Z,95678.81
2022-09-27T05:43:23.913Z,95688.34
2022-09-27T05:45:50.139Z,95687.56
2022-09-27T05:48:16.550Z,95691.31
2022-09-27T05:50:42.898Z,95701.94
2022-09-27T05:53:09.133Z,95694.75
2022-09-27T05:55:35.482Z,95700.84
2022-09-27T05:58:02.281Z,95701.13
2022-09-27T06:00:28.604Z,95697.69
2022-09-27T06:02:55.100Z,95699.56
2022-09-27T06:05:21.541Z,95696.91
2022-09-27T06:07:47.833Z,95707.53
2022-09-27T06:10:14.327Z,95712.06
2022-09-27T06:12:40.535Z,95715.50
2022-09-27T06:15:06.752Z,95714.72
2022-09-27T06:17:33.113Z,95724.53
2022-09-27T06:19:59.398Z,95715.50
2022-09-27T06:22:25.781Z,95726.91
2022-09-27T06:24:52.177Z,95729.81
2022-09-27T06:27:18.467Z,95731.03
2022-09-27T06:29:44.909Z,95741.00
2022-09-27T06:32:11.082Z,95745.03
2022-09-27T06:34:37.291Z,95744.84
2022-09-27T06:37:03.944Z,95752.59
2022-09-27T06:39:30.176Z,95757.69
2022-09-27T06:41:56.451Z,95765.59
2022-09-27T06:44:22.830Z,95776.66
2022-09-27T06:46:49.119Z,95774.69
2022-09-27T06:49:15.436Z,95786.88
2022-09-27T06:51:41.803Z,95783.06
2022-09-27T06:54:08.080Z,95788.81
2022-09-27T06:56:34.472Z,95790.28
2022-09-27T06:59:02.047Z,95801.66
2022-09-27T07:01:28.377Z,95794.94
2022-09-27T07:03:54.730Z,95805.81
2022-09-27T07:06:20.953Z,95811.34
2022-09-27T07:08:47.168Z,95807.03
2022-09-27T07:11:14.119Z,95807.22
2022-09-27T07:13:40.546Z,95813.56
2022-09-27T07:16:06.961Z,95813.19
2022-09-27T07:18:33.345Z,95820.78
2022-09-27T07:21:00.460Z,95815.97
2022-09-27T07:23:26.983Z,95823.88
2022-09-27T07:25:53.248Z,95827.84
2022-09-27T07:28:22.081Z,95833.97
2022-09-27T07:30:48.771Z,95832.38
2022-09-27T07:33:15.179Z,95833.97
2022-09-27T07:35:41.402Z,95834.44
2022-09-27T07:38:09.796Z,95837.63
2022-09-27T07:40:36.161Z,95836.56
2022-09-27T07:43:03.334Z,95842.69
2022-09-27T07:45:30.338Z,95843.97
2022-09-27T07:47:56.829Z,95861.25
2022-09-27T07:50:23.090Z,95859.88
2022-09-27T07:52:49.650Z,95851.81
2022-09-27T07:55:16.193Z,95861.59
2022-09-27T07:57:42.771Z,95863.47
2022-09-27T08:00:09.222Z,95862.28
2022-09-27T08:02:35.586Z,95864.28
2022-09-27T08:05:01.955Z,95866.16
2022-09-27T08:07:28.334Z,95869.03
2022-09-27T08:09:54.647Z,95878.53
2022-09-27T08:12:20.909Z,95872.50
2022-09-27T08:14:48.359Z,95878.13
2022-09-27T08:17:14.966Z,95876.53
2022-09-27T08:19:41.283Z,95888.19
2022-09-27T08:22:07.687Z,95885.94
2022-09-27T08:24:34.369Z,95893.75
2022-09-27T08:29:44.706Z,95898.78
2022-09-27T08:32:11.508Z,95906.53
2022-09-27T08:34:37.804Z,95907.41
2022-09-27T08:37:04.065Z,95904.94
2022-09-27T08:39:31.009Z,95914.22
2022-09-27T08:41:59.028Z,95909.97
2022-09-27T08:44:25.307Z,95908.41
2022-09-27T08:46:51.878Z,95914.53
2022-09-27T08:49:18.117Z,95923.00
2022-09-27T08:51:44.528Z,95928.09
2022-09-27T08:54:10.751Z,95929.81
2022-09-27T08:56:37.069Z,95935.56
2022-09-27T08:59:04.014Z,95918.13
2022-09-27T09:01:30.363Z,95914.13
2022-09-27T09:03:57.026Z,95930.63
2022-09-27T09:06:23.301Z,95921.97
2022-09-27T09:08:51.170Z,95918.88
2022-09-27T09:11:17.568Z,95926.59
2022-09-27T09:13:43.793Z,95927.78
2022-09-27T09:16:10.373Z,95925.13
2022-09-27T09:18:37.098Z,95930.84
2022-09-27T09:21:03.331Z,95935.50
2022-09-27T09:23:30.548Z,95939.34
2022-09-27T09:25:56.909Z,95932.50
2022-09-27T09:28:23.731Z,95931.50
2022-09-27T09:30:53.209Z,95937.66
2022-09-27T09:33:21.852Z,95937.34
2022-09-27T09:36:18.221Z,95940.22
2022-09-27T09:38:45.440Z,95937.22
2022-09-27T09:41:12.020Z,95948.19
2022-09-27T09:43:38.691Z,95950.59
2022-09-27T09:46:10.467Z,95941.47
2022-09-27T09:48:36.894Z,95938.00
2022-09-27T09:51:03.624Z,95940.09
2022-09-27T09:53:30.035Z,95946.59
2022-09-27T09:55:56.393Z,95957.50
2022-09-27T09:58:22.727Z,95955.19
2022-09-27T10:00:52.233Z,95940.44
2022-09-27T10:03:19.075Z,95940.50
2022-09-27T10:05:45.521Z,95940.13
2022-09-27T10:08:11.897Z,95928.66
2022-09-27T10:10:38.253Z,95938.91
2022-09-27T10:13:04.548Z,95938.13
2022-09-27T10:18:26.039Z,95937.72
2022-09-27T10:20:52.708Z,95936.91
2022-09-27T10:23:19.589Z,95941.78
2022-09-27T10:25:45.919Z,95931.88
2022-09-27T10:28:12.239Z,95934.53
2022-09-27T10:30:38.614Z,95935.16
2022-09-27T10:33:04.881Z,95937.34
2022-09-27T10:35:31.542Z,95934.97
2022-09-27T10:37:57.877Z,95937.16
2022-09-27T10:40:24.279Z,95910.16
2022-09-27T10:42:52.499Z,95932.59
2022-09-27T10:45:18.777Z,95932.91
2022-09-27T10:47:45.004Z,95945.00
2022-09-27T10:50:15.857Z,95944.19
2022-09-27T10:52:49.272Z,95955.38
2022-09-27T10:55:15.805Z,95949.25
2022-09-27T10:57:45.167Z,95951.31
2022-09-27T11:00:11.556Z,95948.66
2022-09-27T11:02:37.803Z,95951.31
2022-09-27T11:05:04.168Z,95939.53
2022-09-27T11:07:30.638Z,95942.19
2022-09-27T11:09:56.987Z,95946.16
2022-09-27T11:12:23.221Z,95949.91
2022-09-27T11:14:49.454Z,95949.63
2022-09-27T11:17:15.696Z,95955.75
2022-09-27T11:19:41.917Z,95956.44
2022-09-27T11:22:08.470Z,95954.75
2022-09-27T11:24:34.737Z,95954.75
2022-09-27T11:27:01.082Z,95957.22
2022-09-27T11:29:27.546Z,95951.69
2022-09-27T11:31:53.954Z,95965.38
2022-09-27T11:34:20.316Z,95953.88
2022-09-27T11:36:46.819Z,95960.81
2022-09-27T11:39:13.860Z,95951.56
2022-09-27T11:41:40.482Z,95955.13
2022-09-27T11:44:06.754Z,95953.75
2022-09-27T11:46:41.119Z,95968.13
2022-09-27T11:49:08.061Z,95959.59
2022-09-27T11:51:34.256Z,95955.53
2022-09-27T11:54:00.582Z,95958.97
2022-09-27T11:56:26.933Z,95960.63
2022-09-27T11:58:53.334Z,95965.38
2022-09-27T12:01:19.641Z,95956.75
2022-09-27T12:03:45.906Z,95953.28
2022-09-27T12:06:12.167Z,95953.28
2022-09-27T12:08:38.446Z,95963.34
2022-09-27T12:11:04.653Z,95957.88
2022-09-27T12:13:31.234Z,95965.59
2022-09-27T12:15:57.816Z,95952.34
2022-09-27T12:18:24.181Z,95965.72
2022-09-27T12:20:50.649Z,95956.94
2022-09-27T12:23:17.157Z,95959.59
2022-09-27T12:25:44.006Z,95964.16
2022-09-27T12:28:10.220Z,95956.94
2022-09-27T12:30:37.485Z,95960.06
2022-09-27T12:33:03.706Z,95957.38
2022-09-27T12:35:30.007Z,95953.94
2022-09-27T12:37:56.240Z,95949.84
2022-09-27T12:40:22.572Z,95949.53
2022-09-27T12:42:49.249Z,95956.31
2022-09-27T12:45:15.506Z,95937.03
2022-09-27T12:47:42.152Z,95953.31
2022-09-27T12:50:09.927Z,95942.91
2022-09-27T12:52:36.253Z,95950.94
2022-09-27T12:55:03.064Z,95945.91
2022-09-27T12:57:30.758Z,95953.16
2022-09-27T12:59:57.055Z,95954.53
2022-09-27T13:02:23.347Z,95944.09
2022-09-27T13:04:49.628Z,95961.47
2022-09-27T13:07:15.945Z,95958.00
2022-09-27T13:09:42.498Z,95961.00
2022-09-27T13:12:09.976Z,95961.31
2022-09-27T13:14:36.235Z,95959.59
2022-09-27T13:17:03.098Z,95953.63
2022-09-27T13:19:29.398Z,95953.81
2022-09-27T13:21:56.393Z,95961.66
2022-09-27T13:24:23.140Z,95954.25
2022-09-27T13:26:49.405Z,95953.16
2022-09-27T13:29:15.731Z,95950.47
2022-09-27T13:31:42.447Z,95955.03
2022-09-27T13:34:08.776Z,95956.94
2022-09-27T13:36:35.203Z,95954.53
2022-09-27T13:39:01.581Z,95952.97
2022-09-27T13:41:27.932Z,95968.09
2022-09-27T13:43:56.555Z,95964.66
2022-09-27T13:46:23.052Z,95966.84
2022-09-27T13:48:49.454Z,95967.63
2022-09-27T13:51:15.849Z,95958.81
2022-09-27T13:53:42.194Z,95959.13
2022-09-27T13:56:08.513Z,95958.13
2022-09-27T13:58:34.762Z,95958.75
2022-09-27T14:01:01.170Z,95967.09
2022-09-27T14:03:27.444Z,95965.00
2022-09-27T14:05:53.740Z,95961.06
2022-09-27T14:08:20.002Z,95964.63
2022-09-27T14:10:46.430Z,95962.59
2022-09-27T14:13:12.696Z,95967.44
2022-09-27T14:15:39.437Z,95972.31
2022-09-27T14:18:05.734Z,95971.84
2022-09-27T14:20:32.164Z,95967.56
2022-09-27T14:23:01.324Z,95969.75
2022-09-27T14:25:27.543Z,95966.59
2022-09-27T14:27:53.779Z,95966.59
2022-09-27T14:30:20.210Z,95969.56
2022-09-27T14:32:46.412Z,95968.78
2022-09-27T14:35:12.717Z,95968.31
2022-09-27T14:37:40.304Z,95959.00
2022-09-27T14:40:07.105Z,95962.78
2022-09-27T14:42:33.371Z,95956.63
2022-09-27T14:44:59.609Z,95961.19
2022-09-27T14:47:26.260Z,95962.28
2022-09-27T14:49:53.547Z,95959.09
2022-09-27T14:52:20.276Z,95964.47
2022-09-27T14:54:46.914Z,95958.00
2022-09-27T14:57:13.446Z,95966.03
2022-09-27T14:59:39.705Z,95966.84
2022-09-27T15:02:05.948Z,95963.66
2022-09-27T15:04:32.542Z,95957.53
2022-09-27T15:07:00.022Z,95968.25
2022-09-27T15:09:29.686Z,95962.09
2022-09-27T15:11:58.528Z,95968.25
2022-09-27T15:14:24.828Z,95957.53
2022-09-27T15:16:51.112Z,95967.44
2022-09-27T15:19:17.584Z,95970.13
2022-09-27T15:21:44.010Z,95969.31
2022-09-27T15:24:10.286Z,95969.31
2022-09-27T15:26:36.554Z,95958.63
2022-09-27T15:29:02.794Z,95968.25
2022-09-27T15:31:29.167Z,95963.97
2022-09-27T15:33:55.445Z,95961.28
2022-09-27T15:36:21.775Z,95962.41
2022-09-27T15:38:48.450Z,95966.94
2022-09-27T15:41:14.845Z,95961.91
2022-09-27T15:43:41.148Z,95967.25
2022-09-27T15:46:08.018Z,95954.19
2022-09-27T15:48:34.309Z,95960.31
2022-09-27T15:51:00.593Z,95971.31
2022-09-27T15:53:27.125Z,95968.16
2022-09-27T15:55:53.386Z,95967.69
2022-09-27T15:58:19.592Z,95977.56
2022-09-27T16:00:45.850Z,95977.56
2022-09-27T16:03:12.280Z,95975.97
2022-09-27T16:05:38.523Z,95973.31
2022-09-27T16:08:04.748Z,95975.97
2022-09-27T16:10:30.970Z,95977.09
2022-09-27T16:12:57.543Z,95982.75
2022-09-27T16:15:24.069Z,95981.16
2022-09-27T16:17:50.329Z,95985.72
2022-09-27T16:20:16.600Z,95984.91
2022-09-27T16:22:42.861Z,95978.31
2022-09-27T16:25:09.115Z,95983.94
2022-09-27T16:27:35.409Z,95971.97
2022-09-27T16:30:02.353Z,95974.66
2022-09-27T16:32:28.643Z,95980.56
2022-09-27T16:34:54.990Z,95973.63
2022-09-27T16:37:21.299Z,95980.06
2022-09-27T16:39:47.856Z,95979.56
2022-09-27T16:42:14.130Z,95980.66
2022-09-27T16:44:40.359Z,95978.28
2022-09-27T16:47:06.724Z,95975.91
2022-09-27T16:49:33.283Z,95980.75
2022-09-27T16:51:59.497Z,95975.41
2022-09-27T16:54:25.729Z,95979.50
2022-09-27T16:56:55.177Z,95982.47
2022-09-27T16:59:21.616Z,95978.19
2022-09-27T17:01:47.897Z,95979.31
2022-09-27T17:04:14.280Z,95982.28
2022-09-27T17:06:40.594Z,95981.78
2022-09-27T17:09:07.043Z,96001.56
2022-09-27T17:11:34.009Z,95999.19
2022-09-27T17:14:00.398Z,96011.78
2022-09-27T17:16:26.726Z,96016.34
2022-09-27T17:18:53.181Z,96012.88
2022-09-27T17:21:19.836Z,96015.84
2022-09-27T17:23:46.652Z,96018.50
2022-09-27T17:26:13.222Z,96014.53
2022-09-27T17:28:39.508Z,96017.22
2022-09-27T17:31:06.326Z,96022.88
2022-09-27T17:33:32.655Z,96020.78
2022-09-27T17:35:58.894Z,96013.06
2022-09-27T17:38:25.070Z,96009.59
2022-09-27T17:40:51.385Z,96017.94
2022-09-27T17:43:18.083Z,96012.88
2022-09-27T17:45:44.313Z,96021.19
2022-09-27T17:48:13.480Z,96013.94
2022-09-27T17:50:40.134Z,96018.03
2022-09-27T17:53:06.419Z,96016.44
2022-09-27T17:55:32.695Z,96015.97
2022-09-27T17:57:58.936Z,96008.22
2022-09-27T18:00:25.136Z,96010.88
2022-09-27T18:02:51.421Z,96013.09
2022-09-27T18:05:17.687Z,96011.19
2022-09-27T18:07:43.897Z,96003.78
2022-09-27T18:10:10.247Z,96013.66
2022-09-27T18:12:36.458Z,96012.09
2022-09-27T18:15:02.660Z,96002.38
2022-09-27T18:17:30.931Z,96018.53
2022-09-27T18:19:57.150Z,96021.47
2022-09-27T18:22:23.354Z,96018.03
2022-09-27T18:24:49.749Z,96021.78
2022-09-27T18:27:16.058Z,96020.19
2022-09-27T18:29:42.281Z,96020.19
2022-09-27T18:32:08.509Z,96023.69
2022-09-27T18:34:34.737Z,96022.88
2022-09-27T18:37:01.442Z,96025.03
2022-09-27T18:39:27.690Z,96017.03
2022-09-27T18:41:54.310Z,96018.13
2022-09-27T18:44:20.573Z,96010.13
2022-09-27T18:46:46.858Z,96024.53
2022-09-27T18:49:13.179Z,96016.03
2022-09-27T18:51:39.439Z,96019.50
2022-09-27T18:54:05.647Z,96021.38
2022-09-27T18:56:32.278Z,96018.19
2022-09-27T18:58:58.474Z,96011.28
2022-09-27T19:01:25.566Z,96020.41
2022-09-27T19:03:51.931Z,96020.41
2022-09-27T19:06:18.228Z,96022.28
2022-09-27T19:08:44.843Z,96022.56
2022-09-27T19:11:11.116Z,96023.63
2022-09-27T19:13:46.124Z,96024.75
2022-09-27T19:16:16.763Z,96026.91
2022-09-27T19:18:43.406Z,96028.00
2022-09-27T19:21:10.371Z,96028.28
2022-09-27T19:23:36.691Z,96029.09
2022-09-27T19:26:02.956Z,96029.38
2022-09-27T19:28:29.776Z,96024.34
2022-09-27T19:30:56.412Z,96028.09
2022-09-27T19:33:22.645Z,96032.66
2022-09-27T19:35:48.852Z,96029.97
2022-09-27T19:38:15.062Z,96024.94
2022-09-27T19:40:41.469Z,96024.94
2022-09-27T19:43:07.690Z,96032.94
2022-09-27T19:45:33.939Z,96027.91
2022-09-27T19:48:00.358Z,96029.78
2022-09-27T19:50:26.575Z,96029.78
2022-09-27T19:52:52.972Z,96028.16
2022-09-27T19:55:19.424Z,96032.72
2022-09-27T19:57:45.625Z,96016.56
2022-09-27T20:00:11.852Z,96025.50
2022-09-27T20:02:38.514Z,96035.13
2022-09-27T20:05:04.728Z,96033.25
2022-09-27T20:07:30.930Z,96038.28
2022-09-27T20:09:57.306Z,96043.63
2022-09-27T20:12:23.642Z,96030.28
2022-09-27T20:14:49.914Z,96040.94
2022-09-27T20:17:16.274Z,96036.38
2022-09-27T20:19:42.567Z,96040.34
2022-09-27T20:22:08.883Z,96043.53
2022-09-27T20:24:35.362Z,96042.44
2022-09-27T20:27:01.653Z,96034.13
2022-09-27T20:29:28.278Z,96042.13
2022-09-27T20:32:22.501Z,96044.03
2022-09-27T20:34:41.376Z,96034.91
2022-09-27T20:37:10.727Z,96043.44
2022-09-27T20:39:36.966Z,96038.41
2022-09-27T20:42:03.188Z,96038.97
2022-09-27T20:44:30.020Z,96037.69
2022-09-27T20:46:56.299Z,96029.97
2022-09-27T20:49:22.607Z,96034.50
2022-09-27T20:51:50.014Z,96037.47
2022-09-27T20:54:16.204Z,96033.25
2022-09-27T20:56:43.065Z,96030.84
2022-09-27T20:59:12.798Z,96031.91
2022-09-27T21:01:41.065Z,96027.16
2022-09-27T21:04:07.301Z,96029.03
2022-09-27T21:06:33.496Z,96030.59
2022-09-27T21:08:59.679Z,96017.56
2022-09-27T21:11:25.941Z,96018.66
2022-09-27T21:13:52.321Z,96019.72
2022-09-27T21:16:20.072Z,96018.94
2022-09-27T21:18:46.970Z,96022.69
2022-09-27T21:21:13.999Z,96019.81
2022-09-27T21:23:44.327Z,96013.28
2022-09-27T21:26:11.444Z,96016.91
2022-09-27T21:28:37.671Z,96004.25
2022-09-27T21:31:03.917Z,96002.53
2022-09-27T21:33:30.445Z,96005.56
2022-09-27T21:35:56.651Z,96005.16
2022-09-27T21:38:22.853Z,95999.91
2022-09-27T21:40:49.100Z,96006.38
2022-09-27T21:43:15.373Z,95991.06
2022-09-27T21:45:41.573Z,96002.88
2022-09-27T21:48:07.779Z,96003.22
2022-09-27T21:50:33.998Z,96005.16
2022-09-27T21:53:00.771Z,96006.31
2022-09-27T21:55:26.954Z,95993.06
2022-09-27T21:57:53.309Z,95996.88
2022-09-27T22:00:19.511Z,96002.28
2022-09-27T22:02:45.771Z,95993.25
2022-09-27T22:05:12.012Z,95988.81
2022-09-27T22:07:41.742Z,95989.38
2022-09-27T22:10:08.330Z,95984.91
2022-09-27T22:12:34.537Z,95992.66
2022-09-27T22:15:00.738Z,95987.13
2022-09-27T22:17:27.047Z,95982.38
2022-09-27T22:19:53.352Z,95985.91
2022-09-27T22:22:19.565Z,95983.28
2022-09-27T22:24:45.758Z,95984.66
2022-09-27T22:27:11.971Z,95975.66
2022-09-27T22:29:38.306Z,95970.91
2022-09-27T22:32:04.587Z,95980.22
2022-09-27T22:34:30.810Z,95985.03
2022-09-27T22:36:57.048Z,95977.63
2022-09-27T22:39:24.014Z,95983.53
2022-09-27T22:41:50.211Z,95974.22
2022-09-27T22:44:16.437Z,95967.63
2022-09-27T22:46:44.310Z,95962.59
2022-09-27T22:49:11.121Z,95971.88
2022-09-27T22:51:37.311Z,95957.56
2022-09-27T22:54:03.645Z,95956.78
2022-09-27T22:56:29.953Z,95956.56
2022-09-27T22:58:56.152Z,95949.41
2022-09-27T23:01:22.452Z,95946.50
2022-09-27T23:03:48.766Z,95951.31
2022-09-27T23:06:15.069Z,95951.13
2022-09-27T23:08:41.394Z,95951.66
2022-09-27T23:11:07.579Z,95936.28
2022-09-27T23:13:33.820Z,95941.09
2022-09-27T23:16:00.100Z,95930.72
2022-09-27T23:18:26.648Z,95925.97
2022-09-27T23:20:52.879Z,95922.81
2022-09-27T23:23:19.360Z,95920.44
2022-09-27T23:25:45.610Z,95920.97
2022-09-27T23:28:11.949Z,95913.84
2022-09-27T23:30:38.161Z,95908.81
2022-09-27T23:33:04.383Z,95903.78
2022-09-27T23:35:30.569Z,95905.13
2022-09-27T23:37:56.840Z,95896.16
2022-09-27T23:40:23.484Z,95899.34
2022-09-27T23:42:49.755Z,95894.59
2022-09-27T23:45:15.973Z,95901.25
2022-09-27T23:47:42.663Z,95885.88
2022-09-27T23:50:09.245Z,95888.03
2022-09-27T23:52:35.733Z,95877.97
2022-09-27T23:55:01.988Z,95876.38
2022-09-27T23:59:56.920Z,95862.88
